createdAt,value
2022-11-29T00:01:36.160Z,9.10
2022-11-29T00:04:03.858Z,9.10
2022-11-29T00:06:33.769Z,9.10
2022-11-29T00:09:06.210Z,9.20
2022-11-29T00:11:54.823Z,9.10
2022-11-29T00:14:23.307Z,9.10
2022-11-29T00:17:04.180Z,9.10
2022-11-29T00:19:35.929Z,9.10
2022-11-29T00:22:04.108Z,9.10
2022-11-29T00:24:32.394Z,9.10
2022-11-29T00:26:59.980Z,9.10
2022-11-29T00:29:27.712Z,9.10
2022-11-29T00:31:54.907Z,9.10
2022-11-29T00:34:22.165Z,9.10
2022-11-29T00:36:49.373Z,9.10
2022-11-29T00:39:16.765Z,9.10
2022-11-29T00:41:44.236Z,9.10
2022-11-29T00:44:16.804Z,9.10
2022-11-29T00:46:47.201Z,9.10
2022-11-29T00:49:14.485Z,9.10
2022-11-29T00:51:41.691Z,9.10
2022-11-29T00:54:08.972Z,9.10
2022-11-29T00:56:36.223Z,9.20
2022-11-29T00:59:03.420Z,9.20
2022-11-29T01:01:30.683Z,9.10
2022-11-29T01:03:57.937Z,9.20
2022-11-29T01:06:25.164Z,9.10
2022-11-29T01:08:52.478Z,9.10
2022-11-29T01:11:25.946Z,9.20
2022-11-29T01:13:59.068Z,9.10
2022-11-29T01:16:27.381Z,9.10
2022-11-29T01:18:54.765Z,9.10
2022-11-29T01:21:24.245Z,9.20
2022-11-29T01:23:53.092Z,9.20
2022-11-29T01:26:24.331Z,9.20
2022-11-29T01:28:54.007Z,9.20
2022-11-29T01:31:25.808Z,9.20
2022-11-29T01:33:54.959Z,9.20
2022-11-29T01:36:22.835Z,9.20
2022-11-29T01:38:50.215Z,9.20
2022-11-29T01:41:23.687Z,9.20
2022-11-29T01:44:03.438Z,9.20
2022-11-29T01:46:34.292Z,9.20
2022-11-29T01:49:15.532Z,9.20
2022-11-29T01:51:48.162Z,9.20
2022-11-29T01:54:15.643Z,9.20
2022-11-29T01:56:44.777Z,9.20
2022-11-29T01:59:14.802Z,9.20
2022-11-29T02:01:42.315Z,9.20
2022-11-29T02:04:09.813Z,9.30
2022-11-29T02:06:38.878Z,9.30
2022-11-29T02:09:21.813Z,9.30
2022-11-29T02:12:04.981Z,9.30
2022-11-29T02:14:53.786Z,9.30
2022-11-29T02:17:24.235Z,9.30
2022-11-29T02:20:11.055Z,9.30
2022-11-29T02:22:46.973Z,9.30
2022-11-29T02:25:35.967Z,9.30
2022-11-29T02:28:30.781Z,9.30
2022-11-29T02:31:15.705Z,9.30
2022-11-29T02:34:07.587Z,9.30
2022-11-29T02:36:49.502Z,9.30
2022-11-29T02:39:51.266Z,9.30
2022-11-29T02:42:52.577Z,9.30
2022-11-29T02:45:32.538Z,9.40
2022-11-29T02:48:17.946Z,9.30
2022-11-29T02:51:11.394Z,9.30
2022-11-29T02:53:51.122Z,9.40
2022-11-29T02:56:25.589Z,9.30
2022-11-29T02:59:06.509Z,9.40
2022-11-29T03:02:03.008Z,9.40
2022-11-29T03:05:03.346Z,9.30
2022-11-29T03:07:54.444Z,9.30
2022-11-29T03:10:40.250Z,9.40
2022-11-29T03:13:30.479Z,9.40
2022-11-29T03:16:18.583Z,9.40
2022-11-29T03:18:56.025Z,9.40
2022-11-29T03:21:36.671Z,9.40
2022-11-29T03:24:37.641Z,9.40
2022-11-29T03:27:12.311Z,9.40
2022-11-29T03:29:52.875Z,9.40
2022-11-29T03:32:26.719Z,9.40
2022-11-29T03:34:59.864Z,9.40
2022-11-29T03:37:51.740Z,9.40
2022-11-29T03:40:55.435Z,9.40
2022-11-29T03:43:30.470Z,9.50
2022-11-29T03:46:03.814Z,9.50
2022-11-29T03:48:40.736Z,9.50
2022-11-29T03:51:17.641Z,9.50
2022-11-29T03:53:55.938Z,9.40
2022-11-29T03:56:26.018Z,9.50
2022-11-29T03:59:08.329Z,9.50
2022-11-29T04:02:02.387Z,9.50
2022-11-29T04:04:53.732Z,9.50
2022-11-29T04:07:45.123Z,9.50
2022-11-29T04:10:31.104Z,9.50
2022-11-29T04:13:27.800Z,9.40
2022-11-29T04:16:36.950Z,9.50
2022-11-29T04:19:13.077Z,9.50
2022-11-29T04:21:58.836Z,9.50
2022-11-29T04:24:41.082Z,9.50
2022-11-29T04:27:17.161Z,9.50
2022-11-29T04:29:50.552Z,9.50
2022-11-29T04:32:51.550Z,9.50
2022-11-29T04:36:10.192Z,9.50
2022-11-29T04:39:15.329Z,9.50
2022-11-29T04:41:49.676Z,9.50
2022-11-29T04:44:19.949Z,9.50
2022-11-29T04:47:11.512Z,9.50
2022-11-29T04:50:00.938Z,9.50
2022-11-29T04:52:43.180Z,9.50
2022-11-29T04:55:54.656Z,9.50
2022-11-29T04:58:50.638Z,9.50
2022-11-29T05:01:43.242Z,9.50
2022-11-29T05:04:28.151Z,9.50
2022-11-29T05:07:16.647Z,9.50
2022-11-29T05:09:46.996Z,9.50
2022-11-29T05:12:27.846Z,9.50
2022-11-29T05:15:11.140Z,9.50
2022-11-29T05:18:01.451Z,9.50
2022-11-29T05:20:36.282Z,9.50
2022-11-29T05:23:19.666Z,9.50
2022-11-29T05:26:05.737Z,9.50
2022-11-29T05:29:12.924Z,9.50
2022-11-29T05:31:58.195Z,9.50
2022-11-29T05:34:40.248Z,9.50
2022-11-29T05:37:29.414Z,9.50
2022-11-29T05:40:38.510Z,9.50
2022-11-29T05:43:22.129Z,9.50
2022-11-29T05:45:58.673Z,9.50
2022-11-29T05:48:53.744Z,9.50
2022-11-29T05:51:22.411Z,9.50
2022-11-29T05:54:11.197Z,9.50
2022-11-29T05:56:59.793Z,9.50
2022-11-29T05:59:29.856Z,9.50
2022-11-29T06:02:28.926Z,9.50
2022-11-29T06:05:18.373Z,9.50
2022-11-29T06:08:04.201Z,9.50
2022-11-29T06:10:36.524Z,9.50
2022-11-29T06:13:42.866Z,9.40
2022-11-29T06:16:45.684Z,9.40
2022-11-29T06:19:27.977Z,9.50
2022-11-29T06:22:27.409Z,9.40
2022-11-29T06:25:20.324Z,9.50
2022-11-29T06:28:16.606Z,9.50
2022-11-29T06:31:25.416Z,9.50
2022-11-29T06:34:00.861Z,9.40
2022-11-29T06:36:37.511Z,9.50
2022-11-29T06:39:05.232Z,9.40
2022-11-29T06:41:32.807Z,9.50
2022-11-29T06:44:00.433Z,9.50
2022-11-29T06:46:36.983Z,9.50
2022-11-29T06:49:30.405Z,9.50
2022-11-29T06:52:08.930Z,9.50
2022-11-29T06:54:57.433Z,9.50
2022-11-29T06:57:30.165Z,9.50
2022-11-29T07:00:09.419Z,9.50
2022-11-29T07:03:11.733Z,9.40
2022-11-29T07:05:40.771Z,9.50
2022-11-29T07:08:16.045Z,9.50
2022-11-29T07:10:44.485Z,9.50
2022-11-29T07:13:15.796Z,9.50
2022-11-29T07:15:56.368Z,9.50
2022-11-29T07:18:26.460Z,9.50
2022-11-29T07:21:06.029Z,9.50
2022-11-29T07:23:48.267Z,9.50
2022-11-29T07:26:22.753Z,9.50
2022-11-29T07:29:17.311Z,9.50
2022-11-29T07:32:04.757Z,9.50
2022-11-29T07:34:44.565Z,9.50
2022-11-29T07:37:44.576Z,9.50
2022-11-29T07:40:37.171Z,9.50
2022-11-29T07:43:44.818Z,9.50
2022-11-29T07:46:12.103Z,9.50
2022-11-29T07:48:39.405Z,9.50
2022-11-29T07:51:06.812Z,9.50
2022-11-29T07:53:41.064Z,9.50
2022-11-29T07:56:12.076Z,9.50
2022-11-29T07:58:39.607Z,9.40
2022-11-29T08:01:07.108Z,9.40
2022-11-29T08:03:35.524Z,9.40
2022-11-29T08:06:03.070Z,9.40
2022-11-29T08:08:30.325Z,9.40
2022-11-29T08:10:57.596Z,9.40
2022-11-29T08:13:24.956Z,9.50
2022-11-29T08:15:52.683Z,9.50
2022-11-29T08:18:23.391Z,9.50
2022-11-29T08:20:50.623Z,9.50
2022-11-29T08:23:17.899Z,9.50
2022-11-29T08:25:45.861Z,9.50
2022-11-29T08:28:14.190Z,9.50
2022-11-29T08:30:41.405Z,9.50
2022-11-29T08:33:08.654Z,9.60
2022-11-29T08:35:35.972Z,9.60
2022-11-29T08:38:04.834Z,9.60
2022-11-29T08:40:32.109Z,9.60
2022-11-29T08:43:01.813Z,9.60
2022-11-29T08:45:29.265Z,9.60
2022-11-29T08:47:56.590Z,9.60
2022-11-29T08:50:24.581Z,9.60
2022-11-29T08:53:11.303Z,9.70
2022-11-29T08:55:42.612Z,9.70
2022-11-29T08:58:13.659Z,9.70
2022-11-29T09:00:43.587Z,9.70
2022-11-29T09:03:29.168Z,9.80
2022-11-29T09:05:57.518Z,9.80
2022-11-29T09:08:24.739Z,9.90
2022-11-29T09:10:52.033Z,9.90
2022-11-29T09:13:19.347Z,9.90
2022-11-29T09:15:46.629Z,9.90
2022-11-29T09:18:13.841Z,9.90
2022-11-29T09:20:43.914Z,9.90
2022-11-29T09:23:12.991Z,9.90
2022-11-29T09:25:40.192Z,10.00
2022-11-29T09:28:07.506Z,10.00
2022-11-29T09:30:36.525Z,10.00
2022-11-29T09:33:04.902Z,10.00
2022-11-29T09:35:33.198Z,10.00
2022-11-29T09:38:00.467Z,10.00
2022-11-29T09:40:53.716Z,10.00
2022-11-29T09:43:24.546Z,10.10
2022-11-29T09:46:01.972Z,10.10
2022-11-29T09:49:15.722Z,10.10
2022-11-29T09:52:04.176Z,10.10
2022-11-29T09:54:39.595Z,10.10
2022-11-29T09:57:10.823Z,10.10
2022-11-29T09:59:44.943Z,10.20
2022-11-29T10:02:21.362Z,10.10
2022-11-29T10:04:54.828Z,10.20
2022-11-29T10:07:46.055Z,10.20
2022-11-29T10:10:24.400Z,10.20
2022-11-29T10:13:07.478Z,10.20
2022-11-29T10:15:40.325Z,10.20
2022-11-29T10:18:22.708Z,10.20
2022-11-29T10:20:52.387Z,10.30
2022-11-29T10:23:22.556Z,10.30
2022-11-29T10:25:55.063Z,10.30
2022-11-29T10:28:34.699Z,10.30
2022-11-29T10:31:21.328Z,10.30
2022-11-29T10:33:49.854Z,10.30
2022-11-29T10:36:45.734Z,10.30
2022-11-29T10:39:25.397Z,10.30
2022-11-29T10:41:56.865Z,10.40
2022-11-29T10:44:25.163Z,10.40
2022-11-29T10:46:53.395Z,10.40
2022-11-29T10:49:24.977Z,10.40
2022-11-29T10:51:52.285Z,10.40
2022-11-29T10:54:31.814Z,10.40
2022-11-29T10:57:01.206Z,10.40
2022-11-29T10:59:30.373Z,10.40
2022-11-29T11:01:58.041Z,10.30
2022-11-29T11:04:37.180Z,10.30
2022-11-29T11:07:06.336Z,10.30
2022-11-29T11:09:48.883Z,10.40
2022-11-29T11:12:16.092Z,10.40
2022-11-29T11:14:44.631Z,10.40
2022-11-29T11:17:27.988Z,10.40
2022-11-29T11:20:04.399Z,10.40
2022-11-29T11:22:33.634Z,10.50
2022-11-29T11:25:07.025Z,10.50
2022-11-29T11:27:40.051Z,10.50
2022-11-29T11:30:22.479Z,10.50
2022-11-29T11:33:19.556Z,10.60
2022-11-29T11:36:11.184Z,10.60
2022-11-29T11:39:09.338Z,10.60
2022-11-29T11:41:59.564Z,10.70
2022-11-29T11:44:58.667Z,10.70
2022-11-29T11:47:31.069Z,10.80
2022-11-29T11:50:04.185Z,10.80
2022-11-29T11:52:41.926Z,10.90
2022-11-29T11:55:31.842Z,10.90
2022-11-29T11:58:09.848Z,10.90
2022-11-29T12:03:51.899Z,10.90
2022-11-29T12:06:39.479Z,10.90
2022-11-29T12:09:18.616Z,10.90
2022-11-29T12:11:51.893Z,10.90
2022-11-29T12:14:34.262Z,10.90
2022-11-29T12:17:33.907Z,10.90
2022-11-29T12:20:38.693Z,10.90
2022-11-29T12:23:13.105Z,10.90
2022-11-29T12:25:55.536Z,10.90
2022-11-29T12:28:29.445Z,10.90
2022-11-29T12:31:02.281Z,10.90
2022-11-29T12:34:11.668Z,10.90
2022-11-29T12:37:11.399Z,10.90
2022-11-29T12:39:38.716Z,10.90
2022-11-29T12:42:25.821Z,10.80
2022-11-29T12:45:03.324Z,10.80
2022-11-29T12:47:37.922Z,10.80
2022-11-29T12:50:22.613Z,10.70
2022-11-29T12:53:23.916Z,10.70
2022-11-29T12:56:33.809Z,10.70
2022-11-29T12:59:23.326Z,10.70
2022-11-29T13:01:59.459Z,10.70
2022-11-29T13:04:41.516Z,10.60
2022-11-29T13:07:43.790Z,10.60
2022-11-29T13:10:27.312Z,10.60
2022-11-29T13:13:01.720Z,10.60
2022-11-29T13:15:47.600Z,10.60
2022-11-29T13:18:20.992Z,10.60
2022-11-29T13:20:57.248Z,10.60
2022-11-29T13:24:07.922Z,10.60
2022-11-29T13:26:33.853Z,10.60
2022-11-29T13:29:02.444Z,10.50
2022-11-29T13:31:31.038Z,10.50
2022-11-29T13:34:07.703Z,10.50
2022-11-29T13:37:12.389Z,10.50
2022-11-29T13:39:48.409Z,10.50
2022-11-29T13:42:21.954Z,10.50
2022-11-29T13:45:16.785Z,10.50
2022-11-29T13:47:53.389Z,10.50
2022-11-29T13:50:44.146Z,10.50
2022-11-29T13:53:22.389Z,10.50
2022-11-29T13:56:01.861Z,10.50
2022-11-29T13:58:29.303Z,10.50
2022-11-29T14:01:06.972Z,10.50
2022-11-29T14:03:43.061Z,10.50
2022-11-29T14:06:31.601Z,10.50
2022-11-29T14:09:34.004Z,10.40
2022-11-29T14:12:21.502Z,10.40
2022-11-29T14:15:04.702Z,10.40
2022-11-29T14:17:45.331Z,10.40
2022-11-29T14:20:25.164Z,10.40
2022-11-29T14:23:04.572Z,10.40
2022-11-29T14:28:20.966Z,10.40
2022-11-29T14:30:52.227Z,10.40
2022-11-29T14:33:24.204Z,10.30
2022-11-29T14:36:06.536Z,10.30
2022-11-29T14:38:57.972Z,10.20
2022-11-29T14:41:49.919Z,10.20
2022-11-29T14:44:22.160Z,10.30
2022-11-29T14:47:04.051Z,10.30
2022-11-29T14:49:40.521Z,10.20
2022-11-29T14:52:27.598Z,10.20
2022-11-29T14:54:57.410Z,10.20
2022-11-29T14:57:58.432Z,10.20
2022-11-29T15:00:55.524Z,10.20
2022-11-29T15:03:34.365Z,10.20
2022-11-29T15:06:16.433Z,10.20
2022-11-29T15:08:53.598Z,10.20
2022-11-29T15:11:46.516Z,10.20
2022-11-29T15:14:39.829Z,10.20
2022-11-29T15:17:13.026Z,10.20
2022-11-29T15:20:04.738Z,10.20
2022-11-29T15:22:45.244Z,10.20
2022-11-29T15:25:16.141Z,10.10
2022-11-29T15:27:57.890Z,10.10
2022-11-29T15:30:39.014Z,10.10
2022-11-29T15:33:21.644Z,10.10
2022-11-29T15:35:54.897Z,10.10
2022-11-29T15:38:23.735Z,10.10
2022-11-29T15:40:53.114Z,10.10
2022-11-29T15:43:35.929Z,10.10
2022-11-29T15:46:03.289Z,10.10
2022-11-29T15:48:32.200Z,10.10
2022-11-29T15:51:29.287Z,10.10
2022-11-29T15:54:35.759Z,10.10
2022-11-29T15:57:18.177Z,10.10
2022-11-29T15:59:56.337Z,10.00
2022-11-29T16:02:30.190Z,10.10
2022-11-29T16:05:02.261Z,10.10
2022-11-29T16:07:32.634Z,10.10
2022-11-29T16:10:35.310Z,10.00
2022-11-29T16:13:24.428Z,10.00
2022-11-29T16:16:05.926Z,10.00
2022-11-29T16:18:33.991Z,10.00
2022-11-29T16:21:04.230Z,10.00
2022-11-29T16:23:36.993Z,10.00
2022-11-29T16:26:15.889Z,10.00
2022-11-29T16:28:49.682Z,10.00
2022-11-29T16:31:22.144Z,10.00
2022-11-29T16:33:52.303Z,10.00
2022-11-29T16:36:23.992Z,10.00
2022-11-29T16:38:54.282Z,9.90
2022-11-29T16:41:39.827Z,9.90
2022-11-29T16:44:41.720Z,9.90
2022-11-29T16:47:29.254Z,9.80
2022-11-29T16:50:02.629Z,9.80
2022-11-29T16:52:32.386Z,9.80
2022-11-29T16:54:59.880Z,9.70
2022-11-29T16:57:28.784Z,9.70
2022-11-29T16:59:55.976Z,9.70
2022-11-29T17:02:23.448Z,9.70
2022-11-29T17:04:53.838Z,9.70
2022-11-29T17:07:29.848Z,9.70
2022-11-29T17:09:58.024Z,9.60
2022-11-29T17:12:25.342Z,9.70
2022-11-29T17:14:52.517Z,9.60
2022-11-29T17:17:19.867Z,9.60
2022-11-29T17:19:47.113Z,9.60
2022-11-29T17:22:14.514Z,9.60
2022-11-29T17:24:46.434Z,9.60
2022-11-29T17:27:15.138Z,9.60
2022-11-29T17:29:42.327Z,9.60
2022-11-29T17:32:09.690Z,9.50
2022-11-29T17:34:37.463Z,9.50
2022-11-29T17:37:04.817Z,9.50
2022-11-29T17:39:32.609Z,9.50
2022-11-29T17:41:59.820Z,9.50
2022-11-29T17:44:27.067Z,9.50
2022-11-29T17:46:54.269Z,9.50
2022-11-29T17:49:21.480Z,9.50
2022-11-29T17:51:53.292Z,9.50
2022-11-29T17:54:26.656Z,9.50
2022-11-29T17:56:53.981Z,9.40
2022-11-29T17:59:21.259Z,9.30
2022-11-29T18:01:48.641Z,9.30
2022-11-29T18:04:15.966Z,9.30
2022-11-29T18:06:43.600Z,9.30
2022-11-29T18:09:11.261Z,9.30
2022-11-29T18:11:47.691Z,9.30
2022-11-29T18:14:23.283Z,9.30
2022-11-29T18:16:51.252Z,9.20
2022-11-29T18:19:20.549Z,9.20
2022-11-29T18:21:49.003Z,9.20
2022-11-29T18:24:16.586Z,9.10
2022-11-29T18:26:44.089Z,9.10
2022-11-29T18:29:11.648Z,9.00
2022-11-29T18:31:41.723Z,9.00
2022-11-29T18:34:10.650Z,8.90
2022-11-29T18:36:46.939Z,8.90
2022-11-29T18:39:17.204Z,8.80
2022-11-29T18:41:49.125Z,8.80
2022-11-29T18:44:20.197Z,8.70
2022-11-29T18:46:47.848Z,8.70
2022-11-29T18:49:17.384Z,8.70
2022-11-29T18:51:46.027Z,8.70
2022-11-29T18:54:15.593Z,8.60
2022-11-29T18:56:44.215Z,8.60
2022-11-29T18:59:16.334Z,8.50
2022-11-29T19:01:45.429Z,8.60
2022-11-29T19:04:18.883Z,8.60
2022-11-29T19:06:46.774Z,8.50
2022-11-29T19:09:21.191Z,8.50
2022-11-29T19:11:49.753Z,8.50
2022-11-29T19:14:17.517Z,8.50
2022-11-29T19:16:46.784Z,8.40
2022-11-29T19:19:14.063Z,8.40
2022-11-29T19:21:41.701Z,8.40
2022-11-29T19:24:14.653Z,8.40
2022-11-29T19:26:46.667Z,8.40
2022-11-29T19:29:15.216Z,8.40
2022-11-29T19:31:42.806Z,8.40
2022-11-29T19:34:10.676Z,8.40
2022-11-29T19:36:44.119Z,8.40
2022-11-29T19:39:14.445Z,8.40
2022-11-29T19:41:44.152Z,8.40
2022-11-29T19:44:12.337Z,8.30
2022-11-29T19:46:42.527Z,8.30
2022-11-29T19:49:10.400Z,8.30
2022-11-29T19:51:38.578Z,8.30
2022-11-29T19:54:07.532Z,8.30
2022-11-29T19:56:35.079Z,8.30
2022-11-29T19:59:02.698Z,8.40
2022-11-29T20:01:39.711Z,8.40
2022-11-29T20:04:09.607Z,8.40
2022-11-29T20:06:37.387Z,8.40
2022-11-29T20:09:04.802Z,8.40
2022-11-29T20:11:32.019Z,8.40
2022-11-29T20:14:01.351Z,8.40
2022-11-29T20:16:30.240Z,8.40
2022-11-29T20:18:58.831Z,8.50
2022-11-29T20:21:28.809Z,8.50
2022-11-29T20:23:57.579Z,8.50
2022-11-29T20:26:25.828Z,8.50
2022-11-29T20:28:53.158Z,8.60
2022-11-29T20:31:23.012Z,8.60
2022-11-29T20:33:52.666Z,8.60
2022-11-29T20:36:58.198Z,8.70
2022-11-29T20:39:40.652Z,8.70
2022-11-29T20:42:29.652Z,8.70
2022-11-29T20:44:59.654Z,8.70
2022-11-29T20:47:33.219Z,8.70
2022-11-29T20:50:00.676Z,8.80
2022-11-29T20:52:59.897Z,8.80
2022-11-29T20:55:27.176Z,8.80
2022-11-29T20:57:55.665Z,8.80
2022-11-29T21:00:23.238Z,8.80
2022-11-29T21:02:51.298Z,8.80
2022-11-29T21:05:19.897Z,8.80
2022-11-29T21:07:47.562Z,8.80
2022-11-29T21:10:15.518Z,8.80
2022-11-29T21:12:45.548Z,8.80
2022-11-29T21:15:14.669Z,8.90
2022-11-29T21:17:43.222Z,8.90
2022-11-29T21:20:19.216Z,8.80
2022-11-29T21:22:55.820Z,8.90
2022-11-29T21:25:52.466Z,8.80
2022-11-29T21:28:24.533Z,8.90
2022-11-29T21:30:52.411Z,8.90
2022-11-29T21:33:19.879Z,8.90
2022-11-29T21:35:55.676Z,8.90
2022-11-29T21:38:24.737Z,8.90
2022-11-29T21:40:52.387Z,8.90
2022-11-29T21:43:20.761Z,8.90
2022-11-29T21:45:50.015Z,8.90
2022-11-29T21:48:35.321Z,8.90
2022-11-29T21:51:05.145Z,8.90
2022-11-29T21:53:33.046Z,8.90
2022-11-29T21:56:03.387Z,8.90
2022-11-29T21:58:32.097Z,8.90
2022-11-29T22:01:27.357Z,8.90
2022-11-29T22:03:54.778Z,8.90
2022-11-29T22:06:24.086Z,8.90
2022-11-29T22:08:51.590Z,8.80
2022-11-29T22:11:30.791Z,8.80
2022-11-29T22:14:15.943Z,8.80
2022-11-29T22:16:50.196Z,8.80
2022-11-29T22:19:20.284Z,8.80
2022-11-29T22:21:50.068Z,8.80
2022-11-29T22:24:19.480Z,8.80
2022-11-29T22:26:47.888Z,8.80
2022-11-29T22:29:15.574Z,8.80
2022-11-29T22:31:44.638Z,8.80
2022-11-29T22:34:12.007Z,8.80
2022-11-29T22:36:40.282Z,8.80
2022-11-29T22:39:08.784Z,8.80
2022-11-29T22:41:39.324Z,8.80
2022-11-29T22:44:07.204Z,8.80
2022-11-29T22:46:40.563Z,8.80
2022-11-29T22:49:07.902Z,8.80
2022-11-29T22:51:37.651Z,8.70
2022-11-29T22:54:07.409Z,8.80
2022-11-29T22:56:37.264Z,8.70
2022-11-29T22:59:04.736Z,8.70
2022-11-29T23:01:34.768Z,8.70
2022-11-29T23:04:04.746Z,8.70
2022-11-29T23:06:34.592Z,8.70
2022-11-29T23:09:16.016Z,8.70
2022-11-29T23:11:45.464Z,8.70
2022-11-29T23:14:13.154Z,8.70
2022-11-29T23:16:40.893Z,8.70
2022-11-29T23:19:08.541Z,8.70
2022-11-29T23:21:38.878Z,8.70
2022-11-29T23:24:06.444Z,8.70
2022-11-29T23:26:38.825Z,8.70
2022-11-29T23:29:08.466Z,8.70
2022-11-29T23:31:35.911Z,8.70
2022-11-29T23:34:04.107Z,8.70
2022-11-29T23:36:31.445Z,8.70
2022-11-29T23:38:58.708Z,8.70
2022-11-29T23:41:25.899Z,8.70
2022-11-29T23:43:53.171Z,8.70
2022-11-29T23:46:22.855Z,8.70
2022-11-29T23:48:50.611Z,8.70
2022-11-29T23:51:19.209Z,8.70
2022-11-29T23:53:50.206Z,8.70
2022-11-29T23:56:18.657Z,8.70
2022-11-29T23:58:46.427Z,8.70
